.
WxDataArchive / Data Records for 2006-08-11
2006-08-10 August 2006 2006-08-12

Data Records for Friday, 11 August 2006

Time	Temp	Chill	HIndex	Humid	Dewpt	 Wind 	HiWind	WindDir	Rain 	Barom 
-----	----	-----	------	-----	-----	------	------	-------	-----	----- 
00:00	72.5	72.5	72.5	76	64.5	0	2	90	0.00	29.883 
00:05	72.5	72.5	72.5	76	64.5	0	2	90	0.00	29.883 
00:10	72.3	72.3	72.3	75	63.9	0	1	90	0.00	29.883 
00:15	72.3	72.3	72.3	76	64.3	0	2	90	0.00	29.890 
00:20	72.1	72.1	72.1	75	63.7	1	3	90	0.00	29.890 
00:25	72.1	72.1	72.1	75	63.7	0	3	90	0.00	29.890 
00:30	72.1	72.1	72.1	75	63.7	0	2	90	0.00	29.887 
00:35	72.1	72.1	72.1	76	64.1	0	1	90	0.00	29.887 
00:40	72.0	72.0	72.0	75	63.6	0	1	90	0.00	29.887 
00:45	72.0	72.0	72.0	75	63.6	0	1	90	0.00	29.888 
00:50	72.0	72.0	72.0	75	63.6	0	2	90	0.00	29.888 
00:55	72.0	72.0	72.0	75	63.6	0	2	90	0.00	29.888 
01:00	72.0	72.0	72.0	75	63.6	0	2	90	0.00	29.887 
01:05	71.8	71.8	71.8	75	63.4	0	2	90	0.00	29.887 
01:10	71.8	71.8	71.8	75	63.4	0	3	112	0.00	29.887 
01:15	71.6	71.6	71.6	76	63.6	0	1	112	0.00	29.892 
01:20	71.3	71.3	71.3	76	63.3	0	2	112	0.00	29.892 
01:25	71.3	71.3	71.3	76	63.3	2	4	112	0.00	29.892 
01:30	71.3	71.3	71.3	76	63.3	2	5	90	0.00	29.899 
01:35	71.3	71.3	71.3	77	63.7	3	6	68	0.00	29.899 
01:40	71.1	71.1	71.1	79	64.2	3	6	68	0.00	29.899 
01:45	70.9	70.9	70.9	80	64.4	3	7	90	0.00	29.897 
01:50	70.6	70.6	70.6	80	64.1	3	9	90	0.00	29.897 
01:55	70.4	70.4	70.4	81	64.3	3	10	90	0.00	29.897 
02:00	70.1	70.1	70.1	81	64.0	3	9	112	0.00	29.905 
02:05	69.9	69.9	69.9	81	63.8	3	10	112	0.00	29.905 
02:10	69.8	69.8	69.8	81	63.7	3	6	90	0.00	29.905 
02:15	69.6	69.6	69.6	81	63.5	3	7	90	0.00	29.899 
02:20	69.4	69.4	69.4	80	63.0	3	8	90	0.00	29.899 
02:25	69.3	69.3	69.3	80	62.9	3	10	90	0.00	29.899 
02:30	69.1	69.1	69.1	81	63.0	3	7	90	0.00	29.904 
02:35	68.9	68.9	68.9	81	62.8	2	4	112	0.00	29.904 
02:40	68.8	68.8	68.8	82	63.1	2	5	90	0.00	29.904 
02:45	68.6	68.6	68.6	83	63.2	2	8	90	0.00	29.907 
02:50	68.4	68.4	68.4	82	62.7	3	7	112	0.00	29.907 
02:55	68.3	68.3	68.3	82	62.6	2	6	90	0.00	29.907 
03:00	68.1	68.1	68.1	81	62.0	3	5	90	0.00	29.913 
03:05	67.9	67.9	67.9	80	61.5	3	5	90	0.00	29.913 
03:10	67.8	67.8	67.8	80	61.4	2	5	90	0.00	29.913 
03:15	67.6	67.6	67.6	79	60.8	2	5	90	0.00	29.911 
03:20	67.4	67.4	67.4	79	60.7	3	6	90	0.00	29.911 
03:25	67.3	67.3	67.3	79	60.6	3	8	112	0.00	29.911 
03:30	67.1	67.1	67.1	80	60.7	3	6	112	0.00	29.913 
03:35	66.9	66.9	66.9	80	60.5	2	5	90	0.00	29.913 
03:40	66.8	66.8	66.8	80	60.4	2	5	90	0.00	29.913 
03:45	66.8	66.8	66.8	81	60.8	3	6	90	0.00	29.911 
03:50	66.6	66.6	66.6	81	60.6	3	5	90	0.00	29.911 
03:55	66.4	66.4	66.4	81	60.4	3	7	90	0.00	29.911 
04:00	66.3	66.3	66.3	81	60.3	2	5	90	0.00	29.912 
04:05	66.3	66.3	66.3	81	60.3	3	9	90	0.00	29.912 
04:10	66.1	66.1	66.1	81	60.1	2	7	90	0.00	29.912 
04:15	66.1	66.1	66.1	81	60.1	2	6	90	0.00	29.909 
04:20	66.0	66.0	66.0	81	60.0	2	4	90	0.00	29.909 
04:25	66.0	66.0	66.0	81	60.0	3	6	112	0.00	29.909 
04:30	65.8	65.8	65.8	81	59.8	2	5	90	0.00	29.903 
04:35	65.8	65.8	65.8	81	59.8	2	7	112	0.00	29.903 
04:40	65.6	65.6	65.6	81	59.6	4	9	112	0.00	29.903 
04:45	65.6	65.6	65.6	81	59.6	3	6	90	0.00	29.896 
04:50	65.6	65.6	65.6	82	59.9	3	6	90	0.00	29.896 
04:55	65.5	65.5	65.5	82	59.9	2	6	90	0.00	29.896 
05:00	65.5	65.5	65.5	83	60.2	2	6	112	0.00	29.901 
05:05	65.3	65.3	65.3	83	60.0	1	5	90	0.00	29.901 
05:10	65.3	65.3	65.3	83	60.0	2	4	112	0.00	29.901 
05:15	65.2	65.2	65.2	83	59.9	2	5	68	0.00	29.912 
05:20	65.2	65.2	65.2	83	59.9	1	6	112	0.00	29.912 
05:25	65.2	65.2	65.2	83	59.9	1	4	90	0.00	29.912 
05:30	65.2	65.2	65.2	83	59.9	1	5	112	0.00	29.914 
05:35	65.2	65.2	65.2	83	59.9	2	4	90	0.00	29.914 
05:40	65.0	65.0	65.0	83	59.7	2	5	90	0.00	29.914 
05:45	65.0	65.0	65.0	83	59.7	2	5	112	0.00	29.915 
05:50	65.0	65.0	65.0	83	59.7	2	7	90	0.00	29.915 
05:55	64.8	64.8	64.8	83	59.5	2	6	68	0.00	29.915 
06:00	64.7	64.7	64.7	83	59.4	2	6	112	0.00	29.924 
06:05	64.7	64.7	64.7	83	59.4	1	4	90	0.00	29.924 
06:10	64.5	64.5	64.5	84	59.6	2	5	90	0.00	29.924 
06:15	64.3	64.3	64.3	84	59.4	2	6	112	0.00	29.926 
06:20	64.3	64.3	64.3	84	59.4	2	6	112	0.00	29.926 
06:25	64.3	64.3	64.3	84	59.4	2	5	90	0.00	29.926 
06:30	64.2	64.2	64.2	83	58.9	2	5	90	0.00	29.930 
06:35	64.2	64.2	64.2	83	58.9	2	9	112	0.00	29.930 
06:40	64.2	64.2	64.2	83	58.9	2	5	90	0.00	29.930 
06:45	64.0	64.0	64.0	83	58.7	2	3	90	0.00	29.930 
06:50	64.0	64.0	64.0	83	58.7	2	5	90	0.00	29.930 
06:55	63.9	63.9	63.9	83	58.6	2	6	90	0.00	29.930 
07:00	63.9	63.9	63.9	83	58.6	2	5	112	0.00	29.931 
07:05	63.7	63.7	63.7	83	58.4	2	6	90	0.00	29.931 
07:10	63.7	63.7	63.7	82	58.1	3	5	90	0.00	29.931 
07:15	63.5	63.5	63.5	83	58.2	1	4	90	0.00	29.933 
07:20	63.5	63.5	63.5	83	58.2	1	3	112	0.00	29.933 
07:25	63.4	63.4	63.4	82	57.8	2	6	90	0.00	29.933 
07:30	63.4	63.4	63.4	82	57.8	3	7	90	0.00	29.947 
07:35	63.4	63.4	63.4	82	57.8	2	5	90	0.00	29.947 
07:40	63.4	63.4	63.4	82	57.8	2	4	90	0.00	29.947 
07:45	63.4	63.4	63.4	81	57.5	2	7	45	0.00	29.949 
07:50	63.4	63.4	63.4	81	57.5	2	7	90	0.00	29.949 
07:55	63.4	63.4	63.4	81	57.5	2	5	90	0.00	29.949 
08:00	63.4	63.4	63.4	82	57.8	1	5	68	0.00	29.961 
08:05	63.5	63.5	63.5	81	57.6	2	6	112	0.00	29.961 
08:10	63.5	63.5	63.5	81	57.6	2	7	112	0.00	29.961 
08:15	63.5	63.5	63.5	81	57.6	1	4	90	0.00	29.961 
08:20	63.5	63.5	63.5	81	57.6	2	6	45	0.00	29.961 
08:25	63.7	63.7	63.7	81	57.8	2	6	90	0.00	29.961 
08:30	63.9	63.9	63.9	81	57.9	2	6	90	0.00	29.960 
08:35	64.0	64.0	64.0	80	57.7	2	4	112	0.00	29.960 
08:40	64.2	64.2	64.2	79	57.5	2	5	112	0.00	29.960 
08:45	64.3	64.3	64.3	78	57.3	2	6	90	0.00	29.964 
08:50	64.5	64.5	64.5	79	57.8	2	5	90	0.00	29.964 
08:55	64.5	64.5	64.5	78	57.5	3	7	112	0.00	29.964 
09:00	64.8	64.8	64.8	78	57.8	2	6	90	0.00	29.964 
09:05	65.0	65.0	65.0	78	58.0	4	11	90	0.00	29.964 
09:10	65.3	65.3	65.3	77	57.9	3	5	90	0.00	29.964 
09:15	65.6	65.6	65.6	77	58.2	3	9	112	0.00	29.968 
09:20	65.8	65.8	65.8	77	58.4	3	7	90	0.00	29.968 
09:25	65.8	65.8	65.8	77	58.4	3	8	90	0.00	29.968 
09:30	66.3	66.3	66.3	77	58.9	2	5	90	0.00	29.973 
09:35	66.9	66.9	66.9	75	58.7	3	7	90	0.00	29.973 
09:40	67.8	67.8	67.8	74	59.2	2	5	90	0.00	29.973 
09:45	67.6	67.6	67.6	74	59.0	3	6	90	0.00	29.974 
09:50	67.4	67.4	67.4	76	59.6	3	7	90	0.00	29.974 
09:55	67.6	67.6	67.6	75	59.4	2	4	90	0.00	29.974 
10:00	67.8	67.8	67.8	75	59.6	3	7	90	0.00	29.971 
10:05	67.8	67.8	67.8	75	59.6	3	7	90	0.00	29.971 
10:10	67.8	67.8	67.8	76	59.9	4	10	90	0.00	29.971 
10:15	68.4	68.4	68.4	76	60.5	3	7	90	0.00	29.974 
10:20	69.1	69.1	69.1	72	59.7	3	6	112	0.00	29.974 
10:25	69.6	69.6	69.6	72	60.2	3	6	90	0.00	29.974 
10:30	69.8	69.8	69.8	72	60.4	3	11	90	0.00	29.975 
10:35	70.1	70.1	70.1	72	60.6	3	7	90	0.00	29.975 
10:40	70.3	70.3	70.3	71	60.4	3	6	90	0.00	29.975 
10:45	70.4	70.4	70.4	72	60.9	3	7	90	0.00	29.970 
10:50	70.9	70.9	70.9	71	61.0	2	6	45	0.00	29.970 
10:55	71.3	71.3	71.3	70	61.0	4	9	112	0.00	29.970 
11:00	71.5	71.5	71.5	70	61.2	4	10	112	0.00	29.967 
11:05	71.6	71.6	71.6	73	62.5	3	9	112	0.00	29.967 
11:10	72.3	72.3	72.3	71	62.4	3	7	112	0.00	29.967 
11:15	72.5	72.5	72.5	71	62.5	3	5	90	0.00	29.968 
11:20	72.7	72.7	72.7	70	62.3	3	5	90	0.00	29.968 
11:25	72.8	72.8	72.8	69	62.0	3	8	90	0.00	29.968 
11:30	73.2	73.2	73.2	72	63.6	2	8	90	0.00	29.968 
11:35	73.7	73.7	73.7	71	63.7	3	6	90	0.00	29.968 
11:40	73.9	73.9	73.9	69	63.1	3	7	90	0.00	29.968 
11:45	74.0	74.0	74.0	68	62.8	3	9	112	0.00	29.967 
11:50	73.9	73.9	73.9	69	63.1	3	6	90	0.00	29.967 
11:55	73.7	73.7	73.7	70	63.3	3	7	90	0.00	29.967 
12:00	73.9	73.9	73.9	68	62.7	3	6	90	0.00	29.970 
12:05	73.9	73.9	73.9	69	63.1	3	6	90	0.00	29.970 
12:10	74.2	74.2	74.2	69	63.4	3	10	90	0.00	29.970 
12:15	74.6	74.6	74.6	67	62.9	3	7	90	0.00	29.971 
12:20	74.6	74.6	74.6	68	63.3	3	7	90	0.00	29.971 
12:25	74.7	74.7	74.7	67	63.0	3	7	90	0.00	29.971 
12:30	75.1	75.1	77.0	67	63.4	3	6	90	0.00	29.970 
12:35	75.4	75.4	77.4	65	62.8	4	8	90	0.00	29.970 
12:40	75.4	75.4	77.3	66	63.2	3	5	90	0.00	29.970 
12:45	75.8	75.8	77.7	66	63.6	3	6	90	0.00	29.966 
12:50	75.8	75.8	77.7	66	63.6	3	10	90	0.00	29.966 
12:55	76.0	76.0	77.8	66	63.8	4	7	90	0.00	29.966 
13:00	76.1	76.1	77.8	68	64.8	3	7	90	0.00	29.958 
13:05	76.8	76.8	78.6	68	65.4	3	7	112	0.00	29.958 
13:10	76.8	76.8	78.6	64	63.7	3	7	90	0.00	29.958 
13:15	76.7	76.7	78.5	65	64.0	3	6	90	0.00	29.958 
13:20	76.8	76.8	78.6	64	63.7	3	6	90	0.00	29.958 
13:25	77.4	77.4	79.2	63	63.8	2	5	22	0.00	29.958 
13:30	77.7	77.7	79.5	63	64.1	2	5	112	0.00	29.955 
13:35	77.9	77.9	79.6	62	63.8	3	7	90	0.00	29.955 
13:40	77.4	77.4	79.2	65	64.7	3	7	112	0.00	29.955 
13:45	77.2	77.2	79.0	63	63.6	4	9	90	0.00	29.957 
13:50	77.6	77.6	79.4	62	63.5	2	5	112	0.00	29.957 
13:55	77.6	77.6	79.3	61	63.1	2	5	45	0.00	29.957 
14:00	77.6	77.6	79.4	62	63.5	3	7	112	0.00	29.955 
14:05	77.6	77.6	79.4	62	63.5	2	7	112	0.00	29.955 
14:10	77.9	77.9	79.5	59	62.4	3	7	90	0.00	29.955 
14:15	77.7	77.7	79.4	60	62.7	4	7	90	0.00	29.954 
14:20	77.4	77.4	79.1	61	62.9	3	8	90	0.00	29.954 
14:25	77.7	77.7	79.4	62	63.6	3	7	68	0.00	29.954 
14:30	78.5	78.5	80.0	58	62.5	3	10	90	0.00	29.955 
14:35	78.1	78.1	79.7	58	62.1	2	5	90	0.00	29.955 
14:40	77.7	77.7	79.3	56	60.7	3	9	90	0.00	29.955 
14:45	77.4	77.4	79.0	56	60.5	2	7	90	0.00	29.952 
14:50	78.3	78.3	79.8	57	61.8	4	10	90	0.00	29.952 
14:55	79.0	79.0	80.0	50	58.7	3	9	90	0.00	29.952 
15:00	78.6	78.6	79.8	53	60.0	3	6	112	0.00	29.954 
15:05	79.0	79.0	80.3	54	60.9	2	6	90	0.00	29.954 
15:10	79.8	79.8	80.9	53	61.1	2	10	90	0.00	29.954 
15:15	79.8	79.8	80.6	50	59.5	3	10	112	0.00	29.953 
15:20	79.8	79.8	80.8	52	60.6	2	6	90	0.00	29.953 
15:25	79.9	79.9	80.7	50	59.6	3	6	68	0.00	29.953 
15:30	79.8	79.8	80.1	44	55.9	3	6	112	0.00	29.945 
15:35	79.8	79.8	80.3	46	57.2	3	9	90	0.00	29.945 
15:40	79.8	79.8	80.3	46	57.2	4	10	90	0.00	29.945 
15:45	79.9	79.9	80.4	46	57.2	3	6	112	0.00	29.945 
15:50	80.3	80.3	80.8	47	58.2	4	10	90	0.00	29.945 
15:55	80.3	80.3	80.9	48	58.8	3	10	112	0.00	29.945 
16:00	80.3	80.3	80.7	46	57.6	2	7	90	0.00	29.941 
16:05	80.3	80.3	80.7	46	57.6	4	9	90	0.00	29.941 
16:10	79.6	79.6	80.3	48	58.2	3	7	90	0.00	29.941 
16:15	80.1	80.1	80.5	46	57.4	2	5	90	0.00	29.941 
16:20	80.3	80.3	80.7	46	57.6	3	9	90	0.00	29.941 
16:25	79.4	79.4	80.2	49	58.5	2	6	90	0.00	29.941 
16:30	78.6	78.6	79.6	49	57.8	2	6	90	0.00	29.943 
16:35	78.8	78.8	79.6	47	56.8	4	9	112	0.00	29.943 
16:40	79.6	79.6	80.1	46	57.0	3	9	90	0.00	29.943 
16:45	79.8	79.8	80.3	46	57.2	4	10	112	0.00	29.940 
16:50	78.6	78.6	79.4	46	56.1	3	10	112	0.00	29.940 
16:55	78.6	78.6	79.4	46	56.1	3	7	112	0.00	29.940 
17:00	79.2	79.2	79.7	44	55.4	3	6	90	0.00	29.935 
17:05	79.6	79.6	79.9	43	55.1	4	10	90	0.00	29.935 
17:10	78.8	78.8	79.4	44	55.0	3	6	90	0.00	29.935 
17:15	78.3	78.3	79.2	46	55.8	2	9	90	0.00	29.940 
17:20	78.8	78.8	79.6	46	56.2	4	9	90	0.00	29.940 
17:25	79.0	79.0	79.6	44	55.2	4	10	112	0.00	29.940 
17:30	79.2	79.2	79.9	47	57.2	3	7	112	0.00	29.938 
17:35	79.4	79.4	80.0	46	56.8	3	9	90	0.00	29.938 
17:40	79.6	79.6	80.0	45	56.4	3	6	90	0.00	29.938 
17:45	79.6	79.6	80.1	46	57.0	3	5	90	0.00	29.940 
17:50	79.2	79.2	79.6	43	54.7	3	9	68	0.00	29.940 
17:55	78.8	78.8	79.4	43	54.4	4	9	112	0.00	29.940 
18:00	78.6	78.6	79.4	45	55.5	3	9	90	0.00	29.941 
18:05	78.5	78.5	79.3	45	55.4	3	6	90	0.00	29.941 
18:10	78.3	78.3	79.2	45	55.2	3	7	112	0.00	29.941 
18:15	78.1	78.1	79.1	46	55.6	2	5	90	0.00	29.946 
18:20	78.3	78.3	79.2	46	55.8	2	5	112	0.00	29.946 
18:25	78.1	78.1	79.0	44	54.4	2	5	90	0.00	29.946 
18:30	77.9	77.9	78.9	45	54.8	2	10	90	0.00	29.946 
18:35	77.7	77.7	78.8	45	54.6	3	10	90	0.00	29.946 
18:40	77.6	77.6	78.8	46	55.2	3	9	90	0.00	29.946 
18:45	77.4	77.4	78.7	47	55.6	2	6	112	0.00	29.949 
18:50	77.2	77.2	78.7	48	56.0	3	10	90	0.00	29.949 
18:55	77.0	77.0	78.5	48	55.8	3	11	90	0.00	29.949 
19:00	76.8	76.8	78.5	49	56.2	3	6	112	0.00	29.948 
19:05	76.7	76.7	78.4	49	56.1	3	6	90	0.00	29.948 
19:10	76.3	76.3	78.2	49	55.7	4	7	90	0.00	29.948 
19:15	76.0	76.0	78.1	50	56.0	4	10	90	0.00	29.953 
19:20	75.8	75.8	78.0	51	56.4	3	9	90	0.00	29.953 
19:25	75.6	75.6	77.9	50	55.6	3	7	90	0.00	29.953 
19:30	75.4	75.4	77.8	52	56.5	2	7	90	0.00	29.954 
19:35	75.3	75.3	77.7	51	55.9	3	10	90	0.00	29.954 
19:40	74.9	74.9	74.9	51	55.5	3	7	90	0.00	29.954 
19:45	74.7	74.7	74.7	51	55.4	3	7	45	0.00	29.962 
19:50	74.6	74.6	74.6	52	55.8	3	8	90	0.00	29.962 
19:55	74.4	74.4	74.4	53	56.1	2	6	90	0.00	29.962 
20:00	74.0	74.0	74.0	53	55.8	2	6	90	0.00	29.965 
20:05	73.9	73.9	73.9	54	56.2	2	5	112	0.00	29.965 
20:10	73.5	73.5	73.5	55	56.3	2	6	90	0.00	29.965 
20:15	73.3	73.3	73.3	54	55.6	2	5	90	0.00	29.963 
20:20	73.0	73.0	73.0	56	56.4	2	5	90	0.00	29.963 
20:25	72.7	72.7	72.7	56	56.1	2	7	90	0.00	29.963 
20:30	72.3	72.3	72.3	57	56.2	2	5	90	0.00	29.965 
20:35	72.0	72.0	72.0	57	55.9	2	6	112	0.00	29.965 
20:40	71.8	71.8	71.8	57	55.7	2	4	112	0.00	29.965 
20:45	71.3	71.3	71.3	58	55.7	1	4	90	0.00	29.969 
20:50	70.9	70.9	70.9	59	55.8	2	5	112	0.00	29.969 
20:55	70.6	70.6	70.6	59	55.6	1	4	90	0.00	29.969 
21:00	70.3	70.3	70.3	60	55.7	1	2	112	0.00	29.975 
21:05	69.9	69.9	69.9	61	55.8	1	3	68	0.00	29.975 
21:10	69.6	69.6	69.6	61	55.5	1	3	90	0.00	29.975 
21:15	69.1	69.1	69.1	62	55.5	1	2	90	0.00	29.980 
21:20	68.8	68.8	68.8	62	55.2	0	4	112	0.00	29.980 
21:25	68.4	68.4	68.4	64	55.7	0	1	112	0.00	29.980 
21:30	68.1	68.1	68.1	65	55.9	0	2	112	0.00	29.983 
21:35	67.6	67.6	67.6	65	55.4	0	1	112	0.00	29.983 
21:40	67.3	67.3	67.3	66	55.5	0	1	112	0.00	29.983 
21:45	66.9	66.9	66.9	66	55.2	0	1	112	0.00	29.992 
21:50	66.6	66.6	66.6	67	55.3	0	2	112	0.00	29.992 
21:55	66.4	66.4	66.4	67	55.1	0	1	112	0.00	29.992 
22:00	66.1	66.1	66.1	68	55.2	0	2	112	0.00	29.999 
22:05	66.0	66.0	66.0	69	55.5	0	1	112	0.00	29.999 
22:10	65.8	65.8	65.8	69	55.3	0	1	112	0.00	29.999 
22:15	65.6	65.6	65.6	69	55.1	1	2	112	0.00	29.996 
22:20	65.5	65.5	65.5	69	55.1	0	2	112	0.00	29.996 
22:25	65.5	65.5	65.5	70	55.4	0	1	112	0.00	29.996 
22:30	65.2	65.2	65.2	71	55.6	0	1	112	0.00	30.000 
22:35	64.8	64.8	64.8	71	55.2	0	1	112	0.00	30.000 
22:40	64.7	64.7	64.7	71	55.1	0	1	112	0.00	30.000 
22:45	64.5	64.5	64.5	72	55.3	0	1	112	0.00	30.000 
22:50	64.3	64.3	64.3	73	55.5	0	0	---	0.00	30.000 
22:55	63.9	63.9	63.9	73	55.1	0	0	---	0.00	30.000 
23:00	63.5	63.5	63.5	75	55.4	0	1	112	0.00	30.001 
23:05	63.2	63.2	63.2	75	55.1	0	1	112	0.00	30.001 
23:10	62.9	62.9	62.9	76	55.2	0	0	---	0.00	30.001 
23:15	62.7	62.7	62.7	77	55.4	0	1	112	0.00	30.004 
23:20	62.6	62.6	62.6	77	55.3	0	2	112	0.00	30.004 
23:25	62.6	62.6	62.6	77	55.3	0	2	112	0.00	30.004 
23:30	62.4	62.4	62.4	77	55.1	0	1	112	0.00	30.009 
23:35	62.6	62.6	62.6	77	55.3	0	2	112	0.00	30.009 
23:40	62.6	62.6	62.6	77	55.3	0	1	112	0.00	30.009 
23:45	62.4	62.4	62.4	77	55.1	0	1	112	0.00	30.013 
23:50	62.3	62.3	62.3	77	55.0	0	1	112	0.00	30.013 
23:55	62.0	62.0	62.0	78	55.1	0	0	---	0.00	30.013 

CoCoRaHS
IN-AL-39
A2 Web Hosting
Creative Commons License
GoDaddy
Look for:

loaded 2017-12-13 09:43:02 • last modified 2010-11-18 10:43:29
Privacy PolicyDisclaimer
• wx.awcolley.com is powered by PmWiki v.2002016 •
• all content (unless otherwise noted) © 2017 A W Colley